Time;durP1;ratioP1;P1;durP2;ratioP2;P2;SDS_P1;SDS_P2;PMS_P1;PMS_P2;Temp;Humidity;BMP_temperature;BMP_pressure;BME280_temperature;BME280_humidity;BME280_pressure;Samples;Min_cycle;Max_cycle;Signal;HPM_P1;HPM_P2
2022/04/27 00:01:55;;;;;;;8.23;7.43;;;10.20;1.00;;;;;;5119600;27;20443;-61
2022/04/27 00:04:20;;;;;;;8.43;7.63;;;10.10;1.00;;;;;;5120123;27;20665;-60
2022/04/27 00:06:46;;;;;;;10.37;8.10;;;10.10;1.00;;;;;;5126834;27;20200;-61
2022/04/27 00:09:12;;;;;;;11.07;7.63;;;10.10;1.00;;;;;;5115941;27;20195;-61
2022/04/27 00:11:38;;;;;;;7.40;6.70;;;10.10;1.00;;;;;;5109961;27;20201;-61
2022/04/27 00:14:04;;;;;;;9.53;7.67;;;10.10;1.00;;;;;;5127269;27;20467;-62
2022/04/27 00:16:30;;;;;;;9.30;8.10;;;10.10;1.00;;;;;;5116658;27;20510;-60
2022/04/27 00:18:55;;;;;;;9.93;7.17;;;10.10;1.00;;;;;;5124170;27;20271;-60
2022/04/27 00:21:22;;;;;;;11.33;7.40;;;10.10;1.00;;;;;;5120827;27;20546;-60
2022/04/27 00:23:47;;;;;;;8.63;7.43;;;10.00;1.00;;;;;;5111248;27;20198;-61
2022/04/27 00:26:13;;;;;;;7.80;7.00;;;10.00;1.00;;;;;;5125112;27;20832;-61
2022/04/27 00:28:40;;;;;;;9.00;8.10;;;;;;;;;;5120716;27;20253;-60
2022/04/27 00:31:05;;;;;;;7.80;7.03;;;9.90;1.00;;;;;;5125930;27;21158;-61
2022/04/27 00:33:31;;;;;;;9.20;7.90;;;9.90;1.00;;;;;;5117034;27;20452;-60
2022/04/27 00:35:57;;;;;;;7.77;6.97;;;9.90;1.00;;;;;;5126487;27;20288;-60
2022/04/27 00:38:23;;;;;;;9.57;7.67;;;9.80;1.00;;;;;;5117229;27;20506;-60
2022/04/27 00:40:48;;;;;;;8.07;7.27;;;9.90;1.00;;;;;;5114676;27;20197;-60
2022/04/27 00:43:14;;;;;;;8.00;7.20;;;9.90;1.00;;;;;;5109590;27;20213;-61
2022/04/27 00:45:40;;;;;;;9.50;6.70;;;9.80;1.00;;;;;;5121525;27;21056;-61
2022/04/27 00:48:06;;;;;;;7.87;7.07;;;9.80;1.00;;;;;;5124478;27;20447;-60
2022/04/27 00:50:32;;;;;;;11.57;7.70;;;9.80;1.00;;;;;;5119231;28;20451;-60
2022/04/27 00:53:00;;;;;;;7.53;6.83;;;9.40;1.00;;;;;;5125639;28;20507;-63
2022/04/27 00:55:25;;;;;;;7.07;6.27;;;9.50;1.00;;;;;;5118059;28;20524;-59
2022/04/27 00:57:51;;;;;;;7.90;7.10;;;9.60;1.00;;;;;;5123370;28;20470;-60
2022/04/27 01:00:17;;;;;;;8.67;7.23;;;9.50;1.00;;;;;;5115955;28;20178;-59
2022/04/27 01:02:43;;;;;;;8.03;7.20;;;9.30;1.00;;;;;;5098325;28;20440;-60
2022/04/27 01:05:10;;;;;;;10.00;7.73;;;9.30;1.00;;;;;;5122460;27;20190;-60
2022/04/27 01:07:38;;;;;;;9.40;6.73;;;9.30;1.00;;;;;;5122654;27;20445;-60
2022/04/27 01:10:05;;;;;;;7.47;6.77;;;9.20;1.00;;;;;;5122061;27;20483;-61
2022/04/27 01:12:32;;;;;;;10.47;8.27;;;9.20;1.00;;;;;;5124313;27;20447;-60
2022/04/27 01:14:57;;;;;;;9.10;7.97;;;9.20;1.00;;;;;;5122576;27;20462;-61
2022/04/27 01:17:23;;;;;;;8.70;7.90;;;9.20;1.00;;;;;;5127353;27;20455;-61
2022/04/27 01:19:48;;;;;;;9.40;8.40;;;9.20;1.00;;;;;;5129498;27;20542;-60
2022/04/27 01:22:18;;;;;;;9.57;7.70;;;9.10;1.00;;;;;;5131926;27;20643;-60
2022/04/27 01:24:44;;;;;;;8.37;7.43;;;;;;;;;;5119722;27;20534;-61
2022/04/27 01:27:11;;;;;;;7.93;6.77;;;9.00;1.00;;;;;;5121980;27;20563;-61
2022/04/27 01:29:37;;;;;;;6.87;6.17;;;9.00;1.00;;;;;;5118273;27;20443;-60
2022/04/27 01:32:03;;;;;;;6.83;6.13;;;8.90;1.00;;;;;;5125989;27;20451;-60
2022/04/27 01:34:29;;;;;;;8.53;6.87;;;8.90;1.00;;;;;;5121563;27;20190;-60
2022/04/27 01:36:55;;;;;;;7.30;6.50;;;9.00;1.00;;;;;;5122110;27;20462;-61
2022/04/27 01:39:24;;;;;;;8.60;7.03;;;;;;;;;;5132758;27;20184;-60
2022/04/27 01:41:50;;;;;;;6.47;5.83;;;8.90;1.00;;;;;;5119768;27;20496;-61
2022/04/27 01:44:16;;;;;;;7.53;6.73;;;8.80;1.00;;;;;;5118986;27;20502;-59
2022/04/27 01:46:41;;;;;;;7.40;6.60;;;8.80;1.00;;;;;;5133406;27;20527;-62
2022/04/27 01:49:07;;;;;;;6.90;6.20;;;8.80;1.00;;;;;;5106410;27;20503;-61
2022/04/27 01:54:17;;;;;;;8.50;7.70;;;8.70;1.00;;;;;;5129852;27;20811;-60
2022/04/27 01:56:49;;;;;;;7.23;6.47;;;8.70;1.00;;;;;;5127778;27;20442;-60
2022/04/27 01:59:15;;;;;;;8.80;7.00;;;8.70;1.00;;;;;;5121254;27;20189;-60
2022/04/27 02:01:41;;;;;;;7.97;7.17;;;8.70;1.00;;;;;;5126298;27;20470;-61
2022/04/27 02:04:08;;;;;;;8.07;7.27;;;8.70;1.00;;;;;;5127293;27;21255;-61
2022/04/27 02:06:35;;;;;;;7.90;6.90;;;8.70;1.00;;;;;;5122447;27;20507;-59
2022/04/27 02:09:05;;;;;;;8.53;7.67;;;8.70;1.00;;;;;;5099230;27;20447;-61
2022/04/27 02:11:34;;;;;;;7.20;6.50;;;8.60;1.00;;;;;;5123979;27;20441;-60
2022/04/27 02:14:00;;;;;;;7.30;6.50;;;8.50;1.00;;;;;;5129094;27;20459;-60
2022/04/27 02:16:27;;;;;;;8.27;7.07;;;8.60;1.00;;;;;;5120918;27;20531;-59
2022/04/27 02:18:54;;;;;;;8.07;6.63;;;8.60;1.00;;;;;;5128619;27;22006;-59
2022/04/27 02:21:20;;;;;;;10.80;7.27;;;8.60;1.00;;;;;;5129113;27;20488;-60
2022/04/27 02:23:46;;;;;;;10.50;7.47;;;8.60;1.00;;;;;;5124718;27;20551;-61
2022/04/27 02:26:11;;;;;;;8.60;7.10;;;8.50;1.00;;;;;;5116722;27;21016;-60
2022/04/27 02:28:37;;;;;;;8.97;7.67;;;8.50;1.00;;;;;;5125386;27;20719;-61
2022/04/27 02:31:06;;;;;;;7.77;7.00;;;8.50;1.00;;;;;;5121798;27;20604;-61
2022/04/27 02:33:32;;;;;;;9.33;7.73;;;8.40;1.00;;;;;;5123916;27;20190;-60
2022/04/27 02:35:58;;;;;;;8.87;7.93;;;8.50;1.00;;;;;;5122918;27;20451;-59
2022/04/27 02:38:23;;;;;;;8.70;7.70;;;8.50;1.00;;;;;;5119166;27;20579;-60
2022/04/27 02:40:49;;;;;;;8.57;7.60;;;8.50;1.00;;;;;;5129049;27;20450;-60
2022/04/27 02:43:15;;;;;;;9.37;8.37;;;8.50;1.00;;;;;;5123575;27;20235;-60
2022/04/27 02:45:41;;;;;;;8.57;7.67;;;8.40;1.00;;;;;;5131002;27;20199;-61
2022/04/27 02:48:07;;;;;;;9.83;7.97;;;8.30;1.00;;;;;;5118161;27;20447;-60
2022/04/27 02:53:28;;;;;;;9.43;7.50;;;8.20;1.00;;;;;;5058474;27;20464;-60
2022/04/27 02:55:54;;;;;;;7.80;6.73;;;8.20;1.00;;;;;;5121965;27;20561;-61
2022/04/27 02:58:19;;;;;;;8.00;7.20;;;8.20;1.00;;;;;;5119933;27;20204;-61
2022/04/27 03:00:45;;;;;;;8.07;7.30;;;8.20;1.00;;;;;;5121331;27;20188;-60
2022/04/27 03:03:11;;;;;;;7.83;7.03;;;8.10;1.00;;;;;;5129898;27;20180;-61
2022/04/27 03:05:37;;;;;;;8.77;7.97;;;8.10;1.00;;;;;;5129209;27;20181;-61
2022/04/27 03:08:04;;;;;;;9.30;7.70;;;8.10;1.00;;;;;;5121025;27;20442;-60
2022/04/27 03:10:29;;;;;;;9.00;7.00;;;8.10;1.00;;;;;;5120434;27;20259;-61
2022/04/27 03:12:55;;;;;;;9.40;6.90;;;8.10;1.00;;;;;;5127127;27;20447;-60
2022/04/27 03:15:22;;;;;;;9.33;7.20;;;8.20;1.00;;;;;;5117127;27;20206;-60
2022/04/27 03:18:16;;;;;;;8.23;7.40;;;8.20;1.00;;;;;;5123575;27;20264;-59
2022/04/27 03:20:33;;;;;;;7.70;7.00;;;8.30;1.00;;;;;;5126575;27;20453;-60
2022/04/27 03:22:58;;;;;;;8.73;7.80;;;8.30;1.00;;;;;;5118122;27;20440;-60
2022/04/27 03:25:24;;;;;;;9.60;7.70;;;8.30;1.00;;;;;;5127986;27;20236;-60
2022/04/27 03:27:49;;;;;;;7.87;7.03;;;8.40;1.00;;;;;;5114562;27;20193;-60
2022/04/27 03:30:15;;;;;;;9.70;8.07;;;8.30;1.00;;;;;;5129750;27;20597;-60
2022/04/27 03:32:40;;;;;;;9.13;7.57;;;8.40;1.00;;;;;;5123172;27;20194;-60
2022/04/27 03:35:06;;;;;;;8.20;7.33;;;8.40;1.00;;;;;;5120802;27;20633;-61
2022/04/27 03:37:32;;;;;;;9.03;7.80;;;8.30;1.00;;;;;;5116539;27;20608;-61
2022/04/27 03:39:57;;;;;;;8.70;7.80;;;8.30;1.00;;;;;;5127226;27;20186;-60
2022/04/27 03:42:23;;;;;;;8.03;7.07;;;8.30;1.00;;;;;;5121837;27;20219;-60
2022/04/27 03:44:48;;;;;;;9.97;7.47;;;8.30;1.00;;;;;;5122744;27;20183;-60
2022/04/27 03:47:14;;;;;;;9.70;7.80;;;8.20;1.00;;;;;;5122364;27;20238;-61
2022/04/27 03:49:39;;;;;;;9.93;8.20;;;8.20;1.00;;;;;;5115103;27;20178;-60
2022/04/27 03:52:05;;;;;;;8.97;8.07;;;8.10;1.00;;;;;;5112999;27;20565;-60
2022/04/27 03:54:30;;;;;;;8.93;7.60;;;8.10;1.00;;;;;;5116847;27;20288;-60
2022/04/27 03:56:58;;;;;;;13.70;8.13;;;8.20;1.00;;;;;;5113112;27;20219;-60
2022/04/27 03:59:24;;;;;;;9.00;7.47;;;8.30;1.00;;;;;;5115444;27;20185;-60
2022/04/27 04:01:49;;;;;;;10.23;7.33;;;8.30;1.00;;;;;;5127958;27;20948;-60
2022/04/27 04:04:15;;;;;;;9.47;8.30;;;8.30;1.00;;;;;;5121813;27;20193;-60
2022/04/27 04:06:41;;;;;;;8.37;7.30;;;8.40;1.00;;;;;;5118296;27;20269;-61
2022/04/27 04:09:09;;;;;;;9.23;8.07;;;8.40;1.00;;;;;;5116628;27;20189;-60
2022/04/27 04:11:35;;;;;;;9.67;7.80;;;8.30;1.00;;;;;;5117005;27;20443;-60
2022/04/27 04:14:00;;;;;;;8.20;7.40;;;8.40;1.00;;;;;;5127225;27;20473;-60
2022/04/27 04:16:26;;;;;;;9.10;8.00;;;8.40;1.00;;;;;;5128122;27;20170;-59
2022/04/27 04:18:51;;;;;;;8.93;7.43;;;8.40;1.00;;;;;;5116018;27;20662;-59
2022/04/27 04:21:17;;;;;;;8.53;7.73;;;8.40;1.00;;;;;;5129217;27;20195;-59
2022/04/27 04:23:42;;;;;;;9.10;7.90;;;8.50;1.00;;;;;;5116509;27;20232;-60
2022/04/27 04:28:52;;;;;;;8.93;7.77;;;8.60;1.00;;;;;;5127220;27;20234;-61
2022/04/27 04:31:18;;;;;;;8.40;7.27;;;8.60;1.00;;;;;;5120459;27;20443;-62
2022/04/27 04:33:44;;;;;;;9.33;7.33;;;8.60;1.00;;;;;;5111113;27;20190;-61
2022/04/27 04:36:10;;;;;;;8.00;7.20;;;8.70;1.00;;;;;;5117468;27;20491;-62
2022/04/27 04:38:36;;;;;;;10.17;8.00;;;8.60;1.00;;;;;;5116834;27;20182;-61
2022/04/27 04:41:05;;;;;;;10.83;8.93;;;8.60;1.00;;;;;;5113658;27;20516;-57
2022/04/27 04:43:32;;;;;;;9.53;8.20;;;8.70;1.00;;;;;;5122045;27;20698;-57
2022/04/27 04:45:57;;;;;;;9.70;7.70;;;8.80;1.00;;;;;;5126606;27;20453;-58
2022/04/27 04:48:23;;;;;;;11.80;9.47;;;9.00;1.00;;;;;;5111452;27;20466;-57
2022/04/27 04:50:48;;;;;;;8.57;7.77;;;8.90;1.00;;;;;;5122712;27;20188;-58
2022/04/27 04:53:14;;;;;;;7.43;6.73;;;8.90;1.00;;;;;;5120519;28;20217;-57
2022/04/27 04:55:39;;;;;;;8.40;7.60;;;9.00;1.00;;;;;;5117544;28;20210;-58
2022/04/27 04:58:05;;;;;;;9.83;7.50;;;9.20;1.00;;;;;;5114879;28;20255;-58
2022/04/27 05:00:31;;;;;;;8.40;7.60;;;9.20;1.00;;;;;;5100672;28;20445;-57
2022/04/27 05:02:57;;;;;;;8.87;7.90;;;9.40;1.00;;;;;;5126587;28;20177;-58
2022/04/27 05:05:22;;;;;;;9.23;7.63;;;9.40;1.00;;;;;;5117288;28;20203;-58
2022/04/27 05:07:48;;;;;;;11.00;7.77;;;9.40;1.00;;;;;;5115850;28;20452;-58
2022/04/27 05:10:13;;;;;;;14.97;8.27;;;9.50;1.00;;;;;;5115374;28;20526;-59
2022/04/27 05:12:39;;;;;;;10.33;7.87;;;9.50;1.00;;;;;;5123275;28;20193;-58
2022/04/27 05:15:06;;;;;;;8.67;7.77;;;9.60;1.00;;;;;;5116538;28;20208;-58
2022/04/27 05:17:32;;;;;;;8.90;7.70;;;9.50;1.00;;;;;;5125570;28;20537;-57
2022/04/27 05:19:57;;;;;;;8.97;8.07;;;9.60;1.00;;;;;;5116256;28;20452;-57
2022/04/27 05:22:22;;;;;;;9.30;8.03;;;9.80;1.00;;;;;;5123549;28;20198;-58
2022/04/27 05:24:48;;;;;;;9.97;7.33;;;9.90;1.00;;;;;;5112718;28;20201;-58
2022/04/27 05:27:14;;;;;;;8.70;7.80;;;9.90;1.00;;;;;;5119142;28;20189;-57
2022/04/27 05:32:25;;;;;;;8.33;7.53;;;10.00;1.00;;;;;;5117354;28;20672;-58
2022/04/27 05:34:52;;;;;;;8.27;7.43;;;10.10;1.00;;;;;;5105958;28;20992;-57
2022/04/27 05:37:18;;;;;;;13.13;7.70;;;10.10;1.00;;;;;;5125682;28;20450;-58
2022/04/27 05:39:43;;;;;;;9.47;8.33;;;10.30;1.00;;;;;;5116298;28;20431;-58
2022/04/27 05:42:09;;;;;;;9.47;8.27;;;10.50;1.00;;;;;;5121921;28;20205;-58
2022/04/27 05:44:34;;;;;;;10.20;8.93;;;10.50;1.00;;;;;;5113766;28;20561;-58
2022/04/27 05:47:00;;;;;;;11.87;10.50;;;10.70;1.00;;;;;;5110779;28;20671;-58
2022/04/27 05:49:25;;;;;;;8.10;7.30;;;10.70;1.00;;;;;;5122155;27;20192;-58
2022/04/27 05:51:51;;;;;;;8.40;7.50;;;10.90;1.00;;;;;;5124117;27;20659;-59
2022/04/27 05:54:16;;;;;;;8.53;7.67;;;11.00;1.00;;;;;;5113560;28;20202;-57
2022/04/27 05:56:43;;;;;;;8.00;7.20;;;11.00;1.00;;;;;;5113514;28;20315;-56
2022/04/27 05:59:11;;;;;;;12.70;8.50;;;11.10;1.00;;;;;;5118523;27;20200;-57
2022/04/27 06:01:37;;;;;;;9.60;8.20;;;11.10;1.00;;;;;;5116667;27;20939;-58
2022/04/27 06:04:04;;;;;;;9.60;8.70;;;11.30;1.00;;;;;;5114014;27;20543;-58
2022/04/27 06:06:30;;;;;;;10.70;8.00;;;11.60;1.00;;;;;;5127524;27;20421;-57
2022/04/27 06:08:55;;;;;;;10.13;7.93;;;11.60;1.00;;;;;;5129446;27;20963;-57
2022/04/27 06:11:21;;;;;;;10.40;7.93;;;11.60;1.00;;;;;;5123600;27;20417;-57
2022/04/27 06:13:47;;;;;;;8.83;7.47;;;11.60;1.00;;;;;;5130202;27;20216;-57
2022/04/27 06:16:13;;;;;;;12.70;8.03;;;11.70;1.00;;;;;;5133557;27;20638;-57
2022/04/27 06:18:40;;;;;;;9.27;7.67;;;11.70;1.00;;;;;;5133396;27;20196;-57
2022/04/27 06:21:07;;;;;;;9.73;8.10;;;11.80;1.00;;;;;;5129768;27;20568;-57
2022/04/27 06:23:33;;;;;;;14.40;7.93;;;11.90;1.00;;;;;;5113374;27;20443;-56
2022/04/27 06:25:58;;;;;;;8.73;7.70;;;12.00;1.00;;;;;;5117764;27;20440;-58
2022/04/27 06:28:24;;;;;;;15.30;8.20;;;12.00;1.00;;;;;;5125743;27;20190;-57
2022/04/27 06:30:50;;;;;;;10.53;8.37;;;12.10;1.00;;;;;;5117317;27;20193;-57
2022/04/27 06:33:15;;;;;;;8.77;7.30;;;12.10;1.00;;;;;;5117690;27;20191;-57
2022/04/27 06:35:41;;;;;;;8.30;7.50;;;12.10;1.00;;;;;;5116862;27;20229;-57
2022/04/27 06:38:07;;;;;;;9.73;7.53;;;12.10;1.00;;;;;;5129128;27;20252;-57
2022/04/27 06:40:33;;;;;;;12.03;8.37;;;12.10;1.00;;;;;;5117964;27;20197;-58
2022/04/27 06:42:59;;;;;;;8.93;8.03;;;12.00;1.00;;;;;;5130289;27;20478;-58
2022/04/27 06:45:27;;;;;;;12.93;8.27;;;12.00;1.00;;;;;;5124861;27;20438;-58
2022/04/27 06:47:54;;;;;;;13.20;9.47;;;12.00;1.00;;;;;;5118126;27;20186;-57
2022/04/27 06:50:20;;;;;;;9.10;7.80;;;12.20;1.00;;;;;;5116941;27;20443;-57
2022/04/27 06:52:46;;;;;;;9.80;8.83;;;12.20;1.00;;;;;;5126082;27;20451;-58
2022/04/27 06:55:12;;;;;;;11.10;7.73;;;12.30;1.00;;;;;;5094094;28;20204;-58
2022/04/27 06:57:38;;;;;;;9.90;8.90;;;12.40;1.00;;;;;;5125963;27;20467;-57
2022/04/27 07:00:04;;;;;;;12.60;10.33;;;12.60;1.00;;;;;;5132291;27;20523;-58
2022/04/27 07:02:32;;;;;;;9.40;8.47;;;12.70;1.00;;;;;;5133035;27;20245;-56
2022/04/27 07:05:00;;;;;;;10.03;8.67;;;12.80;1.00;;;;;;5133068;27;20454;-57
2022/04/27 07:07:29;;;;;;;11.93;8.50;;;12.90;1.00;;;;;;5132733;27;20546;-57
2022/04/27 07:09:56;;;;;;;10.47;9.47;;;13.30;1.00;;;;;;5132984;27;20473;-57
2022/04/27 07:12:22;;;;;;;11.03;9.70;;;13.40;1.00;;;;;;5113907;27;20447;-60
2022/04/27 07:14:48;;;;;;;10.40;9.20;;;13.10;1.00;;;;;;5132668;27;20481;-56
2022/04/27 07:17:15;;;;;;;11.83;9.23;;;13.10;1.00;;;;;;5132311;27;20439;-56
2022/04/27 07:19:41;;;;;;;13.50;9.80;;;13.50;1.00;;;;;;5131017;27;20439;-57
2022/04/27 07:22:06;;;;;;;9.63;8.77;;;13.70;1.00;;;;;;5124552;27;20852;-56
2022/04/27 07:24:33;;;;;;;11.70;9.80;;;14.00;1.00;;;;;;5111637;28;20194;-56
2022/04/27 07:26:58;;;;;;;10.97;9.80;;;14.20;1.00;;;;;;5111804;28;20273;-57
2022/04/27 07:29:24;;;;;;;11.33;10.23;;;14.40;1.00;;;;;;5111418;28;20530;-57
2022/04/27 07:31:50;;;;;;;10.00;9.00;;;14.50;1.00;;;;;;5111965;28;20189;-57
2022/04/27 07:34:16;;;;;;;12.50;9.43;;;14.40;1.00;;;;;;5111743;28;20205;-58
2022/04/27 07:36:42;;;;;;;13.60;9.73;;;14.30;1.00;;;;;;5111600;27;20439;-57
2022/04/27 07:39:07;;;;;;;13.03;9.83;;;14.40;1.00;;;;;;5111781;28;20201;-57
2022/04/27 07:41:33;;;;;;;10.90;9.80;;;14.60;1.00;;;;;;5117087;27;20264;-57
2022/04/27 07:43:59;;;;;;;10.90;9.80;;;14.60;1.00;;;;;;5132096;27;20225;-57
2022/04/27 07:46:24;;;;;;;11.77;10.57;;;14.60;1.00;;;;;;5132082;27;20435;-57
2022/04/27 07:48:53;;;;;;;10.83;9.73;;;14.30;1.00;;;;;;5124276;27;20488;-56
2022/04/27 07:51:18;;;;;;;11.33;9.90;;;14.20;1.00;;;;;;5111537;27;20520;-57
2022/04/27 07:53:44;;;;;;;11.53;10.30;;;14.30;1.00;;;;;;5111178;28;20442;-57
2022/04/27 07:56:10;;;;;;;11.20;10.10;;;14.20;1.00;;;;;;5124413;27;20230;-56
2022/04/27 07:58:36;;;;;;;11.00;9.90;;;14.40;1.00;;;;;;5123358;27;20189;-56
2022/04/27 08:01:05;;;;;;;10.97;9.70;;;14.40;1.00;;;;;;5111382;28;20431;-58
2022/04/27 08:03:30;;;;;;;11.10;9.90;;;14.80;1.00;;;;;;5116122;27;20821;-59
2022/04/27 08:05:56;;;;;;;12.30;10.53;;;14.80;1.00;;;;;;5131733;27;20423;-57
2022/04/27 08:08:22;;;;;;;14.20;11.10;;;14.50;1.00;;;;;;5131601;27;20222;-56
2022/04/27 08:10:47;;;;;;;12.33;11.00;;;14.40;1.00;;;;;;5112194;27;20568;-58
2022/04/27 08:13:13;;;;;;;12.70;11.50;;;14.50;1.00;;;;;;5110605;28;20260;-58
2022/04/27 08:15:38;;;;;;;12.53;11.33;;;14.40;1.00;;;;;;5110798;28;20842;-57
2022/04/27 08:18:07;;;;;;;12.77;11.47;;;14.60;1.00;;;;;;5110908;28;20178;-57
2022/04/27 08:23:22;;;;;;;13.13;11.83;;;14.90;1.00;;;;;;5125705;27;20520;-57
2022/04/27 08:25:49;;;;;;;14.07;11.67;;;15.00;1.00;;;;;;5128208;27;20446;-58
2022/04/27 08:28:16;;;;;;;13.70;11.53;;;14.80;1.00;;;;;;5120648;27;20530;-57
2022/04/27 08:30:44;;;;;;;15.67;12.93;;;14.90;1.00;;;;;;5131061;27;20452;-57
2022/04/27 08:33:11;;;;;;;12.40;11.20;;;15.10;1.00;;;;;;5130889;27;20446;-57
2022/04/27 08:35:37;;;;;;;13.03;11.60;;;15.20;1.00;;;;;;5131086;27;20595;-57
2022/04/27 08:38:07;;;;;;;13.77;12.13;;;15.10;1.00;;;;;;5130842;27;20434;-57
2022/04/27 08:40:37;;;;;;;14.10;12.70;;;15.00;1.00;;;;;;5131301;27;20476;-57
2022/04/27 08:43:03;;;;;;;12.67;11.37;;;15.10;1.00;;;;;;5130756;27;20517;-57
2022/04/27 08:45:29;;;;;;;14.53;13.00;;;15.10;1.00;;;;;;5131102;27;20974;-58
2022/04/27 08:47:55;;;;;;;12.80;11.20;;;15.20;1.00;;;;;;5128302;27;20560;-58
2022/04/27 08:50:24;;;;;;;15.17;12.70;;;15.70;1.00;;;;;;5111213;28;20443;-57
2022/04/27 08:52:50;;;;;;;18.17;13.67;;;15.70;1.00;;;;;;5110373;28;20413;-57
2022/04/27 08:55:17;;;;;;;14.77;13.17;;;15.80;1.00;;;;;;5110096;28;20467;-58
2022/04/27 08:57:43;;;;;;;13.77;12.47;;;16.00;1.00;;;;;;5110370;28;20523;-57
2022/04/27 09:00:20;;;;;;;14.27;12.40;;;16.20;1.00;;;;;;5110026;28;20470;-58
2022/04/27 09:02:48;;;;;;;14.67;13.27;;;;;;;;;;5128272;28;20514;-58
2022/04/27 09:05:16;;;;;;;16.50;12.63;;;16.80;1.00;;;;;;5130410;28;20416;-58
2022/04/27 09:07:52;;;;;;;14.13;12.27;;;16.80;1.00;;;;;;5130864;28;20463;-58
2022/04/27 09:10:27;;;;;;;14.80;13.30;;;17.00;1.00;;;;;;5126578;28;20472;-57
2022/04/27 09:12:55;;;;;;;14.53;12.47;;;19.60;1.00;;;;;;5126968;28;20442;-61
2022/04/27 09:15:22;;;;;;;14.97;13.40;;;17.10;1.00;;;;;;5130249;28;20437;-58
2022/04/27 09:20:47;;;;;;;14.33;12.97;;;16.90;1.00;;;;;;5130193;28;20918;-56
2022/04/27 09:23:24;;;;;;;15.23;13.80;;;16.60;1.00;;;;;;5131894;27;20427;-58
2022/04/27 09:25:53;;;;;;;15.23;13.20;;;16.90;1.00;;;;;;5133786;27;21011;-57
2022/04/27 09:28:23;;;;;;;15.90;13.00;;;17.10;1.00;;;;;;5134464;27;20523;-57
2022/04/27 09:30:49;;;;;;;14.30;12.90;;;17.10;1.00;;;;;;5134676;27;20978;-57
2022/04/27 09:33:29;;;;;;;13.87;12.60;;;17.00;1.00;;;;;;5122598;27;20426;-59
2022/04/27 09:35:56;;;;;;;13.50;12.10;;;17.20;1.00;;;;;;5127805;27;20477;-58
2022/04/27 09:38:21;;;;;;;14.93;13.33;;;17.00;1.00;;;;;;5134333;27;20522;-58
2022/04/27 09:40:50;;;;;;;13.37;12.07;;;17.00;1.00;;;;;;5134130;27;20525;-57
2022/04/27 09:43:16;;;;;;;14.67;11.77;;;17.10;1.00;;;;;;5134179;27;20224;-58
2022/04/27 09:45:43;;;;;;;14.07;12.60;;;17.30;1.00;;;;;;5114129;27;20519;-58
2022/04/27 09:48:15;;;;;;;14.73;12.73;;;17.40;1.00;;;;;;5116848;27;20458;-57
2022/04/27 09:50:52;;;;;;;14.33;12.17;;;17.30;1.00;;;;;;5113504;28;20766;-56
2022/04/27 09:53:19;;;;;;;12.37;11.10;;;17.40;1.00;;;;;;5130560;27;20438;-57
2022/04/27 09:55:47;;;;;;;13.30;11.87;;;17.20;1.00;;;;;;5113730;28;20455;-57
2022/04/27 09:58:14;;;;;;;12.67;11.50;;;17.00;1.00;;;;;;5113651;28;20439;-57
2022/04/27 10:00:44;;;;;;;12.57;11.40;;;17.30;1.00;;;;;;5133280;27;20489;-57
2022/04/27 10:03:14;;;;;;;12.40;10.70;;;17.30;1.00;;;;;;5113616;28;20447;-57
2022/04/27 10:05:40;;;;;;;13.73;12.33;;;17.40;1.00;;;;;;5114929;27;20497;-57
2022/04/27 10:08:08;;;;;;;11.90;10.70;;;17.40;1.00;;;;;;5113379;28;20436;-57
2022/04/27 10:10:36;;;;;;;12.30;11.10;;;17.60;1.00;;;;;;5113428;28;20432;-57
2022/04/27 10:13:02;;;;;;;12.47;11.10;;;17.50;1.00;;;;;;5113344;28;20435;-58
2022/04/27 10:15:29;;;;;;;12.13;10.93;;;17.30;1.00;;;;;;5113493;28;20553;-56
2022/04/27 10:17:55;;;;;;;16.47;10.87;;;17.30;1.00;;;;;;5113065;28;20415;-57
2022/04/27 10:20:29;;;;;;;11.80;10.60;;;17.70;1.00;;;;;;5113148;28;20500;-57
2022/04/27 10:23:31;;;;;;;10.17;9.00;;;17.90;1.00;;;;;;5112903;27;20440;-57
2022/04/27 10:26:27;;;;;;;11.77;10.57;;;18.20;1.00;;;;;;5133238;27;20455;-57
2022/04/27 10:28:59;;;;;;;10.53;9.50;;;18.60;1.00;;;;;;5119923;27;20514;-57
2022/04/27 10:31:40;;;;;;;9.50;8.60;;;15.40;1.00;;;;;;5133758;27;20849;-58
2022/04/27 10:34:19;;;;;;;9.60;8.60;;;18.50;1.00;;;;;;5132399;27;20901;-58
2022/04/27 10:36:47;;;;;;;8.37;7.57;;;18.60;1.00;;;;;;5130727;27;20450;-57
2022/04/27 10:39:13;;;;;;;11.90;9.30;;;18.60;1.00;;;;;;5132474;27;20439;-57
2022/04/27 10:42:03;;;;;;;8.10;7.30;;;18.40;1.00;;;;;;5133510;27;20466;-57
2022/04/27 10:44:51;;;;;;;7.80;6.37;;;18.70;1.00;;;;;;5131375;27;20273;-57
2022/04/27 10:47:18;;;;;;;8.10;6.67;;;19.10;1.00;;;;;;5132916;27;20458;-58
2022/04/27 10:49:47;;;;;;;6.90;6.20;;;19.30;1.00;;;;;;5133605;27;20409;-56
2022/04/27 10:52:13;;;;;;;6.87;6.17;;;19.40;1.00;;;;;;5132820;27;20493;-58
2022/04/27 10:54:39;;;;;;;6.13;5.50;;;19.90;1.00;;;;;;5115281;27;20442;-58
2022/04/27 10:57:14;;;;;;;7.23;6.50;;;19.90;1.00;;;;;;5112446;28;20418;-58
2022/04/27 10:59:43;;;;;;;6.50;5.90;;;19.40;1.00;;;;;;5131734;27;20898;-58
2022/04/27 11:02:30;;;;;;;7.20;6.17;;;19.10;1.00;;;;;;5132794;27;20435;-59
2022/04/27 11:04:57;;;;;;;8.53;6.40;;;19.90;1.00;;;;;;5133124;27;20396;-59
2022/04/27 11:07:34;;;;;;;6.37;5.77;;;20.70;1.00;;;;;;5132501;27;20410;-58
2022/04/27 11:10:10;;;;;;;6.47;5.40;;;20.70;1.00;;;;;;5116998;27;20431;-57
2022/04/27 11:12:37;;;;;;;5.03;4.60;;;20.90;1.00;;;;;;5113736;27;20484;-59
2022/04/27 11:15:04;;;;;;;8.53;5.60;;;21.20;1.00;;;;;;5112212;28;20459;-57
2022/04/27 11:17:30;;;;;;;5.70;5.20;;;20.80;1.00;;;;;;5111946;28;20448;-58
2022/04/27 11:19:56;;;;;;;5.43;4.90;;;20.40;1.00;;;;;;5112163;28;21029;-58
2022/04/27 11:22:22;;;;;;;8.50;7.70;;;20.30;1.00;;;;;;5118971;27;20446;-56
2022/04/27 11:24:49;;;;;;;8.23;7.43;;;19.80;1.00;;;;;;5132241;27;20183;-58
2022/04/27 11:27:26;;;;;;;8.27;7.50;;;19.60;1.00;;;;;;5116332;27;20552;-59
2022/04/27 11:29:53;;;;;;;7.10;6.50;;;19.40;1.00;;;;;;5131383;27;20417;-57
2022/04/27 11:32:19;;;;;;;8.07;7.27;;;19.30;1.00;;;;;;5132094;27;20431;-58
2022/04/27 11:34:48;;;;;;;8.77;7.50;;;19.00;1.00;;;;;;5127111;27;20459;-57
2022/04/27 11:37:19;;;;;;;8.63;7.83;;;18.50;1.00;;;;;;5114961;27;20539;-58
2022/04/27 11:39:46;;;;;;;8.20;7.43;;;18.30;1.00;;;;;;5118203;27;20474;-57
2022/04/27 11:42:12;;;;;;;7.63;6.70;;;17.90;1.00;;;;;;5132002;27;20406;-58
2022/04/27 11:44:39;;;;;;;8.63;7.73;;;17.80;1.00;;;;;;5129219;27;20947;-58
2022/04/27 11:47:25;;;;;;;9.00;8.10;;;17.70;1.00;;;;;;5113169;27;20913;-58
2022/04/27 11:49:55;;;;;;;7.27;6.60;;;17.50;1.00;;;;;;5131734;27;20500;-58
2022/04/27 11:52:21;;;;;;;8.03;7.00;;;17.30;1.00;;;;;;5125703;27;20434;-58
2022/04/27 11:54:46;;;;;;;9.80;7.60;;;17.30;1.00;;;;;;5119275;27;22241;-57
2022/04/27 11:57:19;;;;;;;8.57;7.77;;;17.30;1.00;;;;;;5131263;27;20874;-58
2022/04/27 11:59:50;;;;;;;8.37;7.20;;;17.40;1.00;;;;;;5113447;27;20182;-58
2022/04/27 12:02:23;;;;;;;8.70;7.70;;;17.20;1.00;;;;;;5115217;27;20414;-57
2022/04/27 12:04:53;;;;;;;8.30;7.50;;;17.10;1.00;;;;;;5129954;27;20446;-57
2022/04/27 12:07:22;;;;;;;8.90;7.93;;;17.20;1.00;;;;;;5131316;27;20499;-58
2022/04/27 12:10:06;;;;;;;9.07;8.17;;;17.20;1.00;;;;;;5131082;27;20936;-58
2022/04/27 12:12:33;;;;;;;7.80;7.00;;;17.10;1.00;;;;;;5112914;27;20527;-58
2022/04/27 12:15:11;;;;;;;7.87;6.63;;;17.00;1.00;;;;;;5130758;27;20470;-58
2022/04/27 12:18:01;;;;;;;7.00;6.33;;;16.80;1.00;;;;;;5131409;27;20494;-58
2022/04/27 12:20:37;;;;;;;6.47;5.97;;;16.80;1.00;;;;;;5117192;27;20407;-58
2022/04/27 12:23:14;;;;;;;8.57;6.23;;;16.70;1.00;;;;;;5130486;27;20431;-58
2022/04/27 12:25:48;;;;;;;10.70;8.07;;;16.70;1.00;;;;;;5131129;27;20442;-57
2022/04/27 12:28:18;;;;;;;12.67;7.30;;;16.70;1.00;;;;;;5118059;27;20431;-56
2022/04/27 12:30:54;;;;;;;9.03;6.17;;;16.50;1.00;;;;;;5113702;27;20411;-57
2022/04/27 12:33:27;;;;;;;12.53;8.60;;;16.60;1.00;;;;;;5092165;28;20527;-58
2022/04/27 12:39:02;;;;;;;9.80;8.10;;;16.80;1.00;;;;;;5110688;28;20712;-58
2022/04/27 12:41:43;;;;;;;6.93;6.23;;;16.70;1.00;;;;;;5127341;27;20409;-58
2022/04/27 12:44:24;;;;;;;7.67;6.97;;;16.90;1.00;;;;;;5109739;28;20438;-58
2022/04/27 12:46:59;;;;;;;8.50;7.03;;;16.90;1.00;;;;;;5128221;27;20427;-57
2022/04/27 12:49:25;;;;;;;7.70;6.90;;;17.00;1.00;;;;;;5130628;27;20965;-58
2022/04/27 12:51:51;;;;;;;7.80;7.00;;;17.20;1.00;;;;;;5130587;27;20402;-58
2022/04/27 12:54:18;;;;;;;11.23;7.90;;;17.40;1.00;;;;;;5130332;27;20488;-58
2022/04/27 12:56:44;;;;;;;16.33;8.40;;;17.60;1.00;;;;;;5128876;28;20185;-58
2022/04/27 12:59:11;;;;;;;8.33;7.53;;;17.80;1.00;;;;;;5114423;28;20440;-58
2022/04/27 13:01:38;;;;;;;7.70;6.73;;;;;;;;;;5114218;28;20238;-58
2022/04/27 13:04:04;;;;;;;7.00;6.40;;;18.30;1.00;;;;;;5130724;28;20904;-58
2022/04/27 13:06:30;;;;;;;7.53;6.87;;;18.60;1.00;;;;;;5130427;28;20410;-56
2022/04/27 13:11:55;;;;;;;9.90;6.30;;;19.00;1.00;;;;;;5130753;28;20402;-57
2022/04/27 13:11:55;;;;;;;7.07;6.37;;;19.00;1.00;;;;;;5110121;28;20410;-57
2022/04/27 13:14:21;;;;;;;9.30;6.47;;;19.40;1.00;;;;;;5109628;28;20467;-58
2022/04/27 13:16:46;;;;;;;7.63;5.70;;;19.50;1.00;;;;;;5122305;28;20417;-58
2022/04/27 13:19:12;;;;;;;6.40;5.30;;;19.70;1.00;;;;;;5125759;28;20227;-58